createdAt,value
2023-01-02T00:03:09.600Z,41.97
2023-01-02T00:08:12.594Z,43.15
2023-01-02T00:13:16.544Z,44.13
2023-01-02T00:18:20.793Z,42.90
2023-01-02T00:23:23.688Z,44.90
2023-01-02T00:28:26.952Z,44.80
2023-01-02T00:33:31.203Z,42.75
2023-01-02T00:38:37.467Z,44.75
2023-01-02T00:43:43.421Z,42.92
2023-01-02T00:48:47.659Z,47.17
2023-01-02T00:53:50.531Z,42.53
2023-01-02T00:58:53.512Z,41.78
2023-01-02T01:03:57.835Z,42.55
2023-01-02T01:09:00.828Z,43.97
2023-01-02T01:14:03.719Z,44.08
2023-01-02T01:19:07.981Z,43.33
2023-01-02T01:24:10.885Z,43.20
2023-01-02T01:29:13.772Z,43.72
2023-01-02T01:34:18.156Z,42.28
2023-01-02T01:39:21.172Z,42.00
2023-01-02T01:44:46.160Z,41.45
2023-01-02T01:49:52.536Z,41.35
2023-01-02T01:55:01.779Z,40.42
2023-01-02T02:00:06.472Z,42.58
2023-01-02T02:05:13.366Z,40.55
2023-01-02T02:10:16.274Z,40.55
2023-01-02T02:15:22.663Z,41.53
2023-01-02T02:20:33.770Z,41.40
2023-01-02T02:26:19.520Z,40.58
2023-01-02T02:31:33.794Z,41.40
2023-01-02T02:36:41.022Z,43.15
2023-01-02T02:41:48.184Z,44.03
2023-01-02T02:46:59.443Z,41.50
2023-01-02T02:52:08.522Z,41.58
2023-01-02T02:57:12.935Z,40.70
2023-01-02T03:02:18.797Z,41.53
2023-01-02T03:07:31.778Z,42.15
2023-01-02T03:12:51.349Z,41.72
2023-01-02T03:18:05.552Z,40.90
2023-01-02T03:23:14.427Z,41.55
2023-01-02T03:28:20.807Z,40.65
2023-01-02T03:33:30.076Z,44.90
2023-01-02T03:38:41.065Z,41.35
2023-01-02T03:43:51.354Z,45.33
2023-01-02T03:49:08.011Z,40.17
2023-01-02T03:54:11.787Z,40.63
2023-01-02T03:59:20.959Z,41.40
2023-01-02T04:04:32.756Z,41.72
2023-01-02T04:09:37.102Z,41.17
2023-01-02T04:14:45.564Z,41.13
2023-01-02T04:19:53.515Z,42.15
2023-01-02T04:25:02.615Z,42.28
2023-01-02T04:30:07.658Z,42.15
2023-01-02T04:35:15.624Z,40.85
2023-01-02T04:40:24.306Z,44.17
2023-01-02T04:45:27.224Z,40.42
2023-01-02T04:50:31.569Z,41.25
2023-01-02T04:55:34.549Z,42.50
2023-01-02T05:00:37.520Z,40.90
2023-01-02T05:05:41.988Z,40.45
2023-01-02T05:10:45.069Z,42.50
2023-01-02T05:15:54.863Z,41.33
2023-01-02T05:21:03.306Z,40.60
2023-01-02T05:26:11.570Z,41.45
2023-01-02T05:31:14.692Z,40.33
2023-01-02T05:36:19.063Z,41.00
2023-01-02T05:41:24.346Z,42.05
2023-01-02T05:46:27.394Z,41.38
2023-01-02T05:51:31.630Z,41.28
2023-01-02T05:56:34.519Z,42.88
2023-01-02T06:01:37.593Z,41.67
2023-01-02T06:06:41.938Z,41.55
2023-01-02T06:11:45.270Z,43.85
2023-01-02T06:16:48.135Z,42.42
2023-01-02T06:21:52.349Z,44.88
2023-01-02T06:26:56.083Z,43.47
2023-01-02T06:32:01.038Z,46.95
2023-01-02T06:37:09.660Z,44.20
2023-01-02T06:42:13.929Z,40.88
2023-01-02T06:47:16.807Z,42.58
2023-01-02T06:52:21.020Z,43.92
2023-01-02T06:57:23.909Z,43.42
2023-01-02T07:02:26.896Z,41.65
2023-01-02T07:07:31.154Z,41.47
2023-01-02T07:12:36.839Z,41.45
2023-01-02T07:17:39.728Z,41.80
2023-01-02T07:22:44.016Z,42.10
2023-01-02T07:27:46.953Z,41.35
2023-01-02T07:32:49.785Z,43.70
2023-01-02T07:37:54.134Z,43.28
2023-01-02T07:42:58.002Z,40.25
2023-01-02T07:48:01.797Z,40.72
2023-01-02T07:53:05.998Z,42.75
2023-01-02T07:58:08.893Z,40.95
2023-01-02T08:03:11.772Z,45.38
2023-01-02T08:08:16.180Z,44.65
2023-01-02T08:13:19.058Z,44.17
2023-01-02T08:18:21.979Z,45.00
2023-01-02T08:23:26.314Z,43.28
2023-01-02T08:28:29.660Z,43.78
2023-01-02T08:33:32.512Z,42.55
2023-01-02T08:38:36.779Z,44.05
2023-01-02T08:43:41.722Z,41.05
2023-01-02T08:48:44.623Z,41.95
2023-01-02T08:53:48.889Z,44.40
2023-01-02T08:58:53.382Z,49.17
2023-01-02T09:03:56.688Z,44.42
2023-01-02T09:09:07.232Z,41.95
2023-01-02T09:14:13.938Z,43.53
2023-01-02T09:19:18.694Z,42.20
2023-01-02T09:24:29.179Z,46.85
2023-01-02T09:29:32.111Z,46.50
2023-01-02T09:34:36.024Z,43.13
2023-01-02T09:39:40.676Z,42.20
2023-01-02T09:44:46.959Z,43.63
2023-01-02T09:49:52.617Z,42.08
2023-01-02T09:54:57.035Z,45.20
2023-01-02T10:00:05.492Z,47.88
2023-01-02T10:05:50.980Z,43.17
2023-01-02T10:11:02.096Z,41.33
2023-01-02T10:16:07.876Z,45.88
2023-01-02T10:21:15.866Z,45.75
2023-01-02T10:26:23.247Z,41.72
2023-01-02T10:31:30.856Z,44.10
2023-01-02T10:36:40.007Z,47.53
2023-01-02T10:41:47.763Z,42.97
2023-01-02T10:46:50.755Z,43.28
2023-01-02T10:52:02.554Z,46.75
2023-01-02T10:57:14.433Z,44.60
2023-01-02T11:02:28.219Z,45.63
2023-01-02T11:07:35.035Z,45.17
2023-01-02T11:12:48.239Z,44.72
2023-01-02T11:17:51.290Z,49.20
2023-01-02T11:22:57.564Z,46.13
2023-01-02T11:28:02.884Z,47.22
2023-01-02T11:33:20.061Z,47.15
2023-01-02T11:38:30.209Z,43.67
2023-01-02T11:43:50.164Z,41.97
2023-01-02T11:48:59.208Z,44.85
2023-01-02T11:54:05.914Z,44.42
2023-01-02T11:59:18.493Z,44.15
2023-01-02T12:04:23.037Z,48.72
2023-01-02T12:09:33.030Z,46.30
2023-01-02T12:14:54.702Z,45.45
2023-01-02T12:20:19.850Z,50.75
2023-01-02T12:25:39.354Z,46.30
2023-01-02T12:30:51.380Z,45.92
2023-01-02T12:36:26.834Z,46.60
2023-01-02T12:41:33.938Z,49.75
2023-01-02T12:47:23.796Z,41.83
2023-01-02T12:52:41.086Z,44.30
2023-01-02T12:57:59.857Z,47.92
2023-01-02T13:03:22.590Z,43.40
2023-01-02T13:08:30.685Z,49.50
2023-01-02T13:13:36.652Z,42.78
2023-01-02T13:19:00.107Z,46.65
2023-01-02T13:24:04.671Z,45.42
2023-01-02T13:29:23.408Z,46.35
2023-01-02T13:34:31.871Z,52.05
2023-01-02T13:39:48.146Z,50.25
2023-01-02T13:44:53.817Z,46.92
2023-01-02T13:50:03.638Z,48.63
2023-01-02T13:55:35.151Z,45.03
2023-01-02T14:00:40.258Z,47.97
2023-01-02T14:06:03.596Z,43.92
2023-01-02T14:11:13.403Z,47.05
2023-01-02T14:16:45.896Z,45.60
2023-01-02T14:21:54.684Z,42.97
2023-01-02T14:27:00.273Z,49.17
2023-01-02T14:32:07.709Z,47.35
2023-01-02T14:37:12.549Z,45.08
2023-01-02T14:42:47.344Z,42.50
2023-01-02T14:47:55.746Z,42.20
2023-01-02T14:53:10.956Z,45.90
2023-01-02T14:58:20.940Z,48.53
2023-01-02T15:03:32.779Z,43.00
2023-01-02T15:08:41.271Z,42.30
2023-01-02T15:14:04.754Z,40.75
2023-01-02T15:19:16.607Z,41.63
2023-01-02T15:24:23.304Z,41.72
2023-01-02T15:29:28.199Z,44.28
2023-01-02T15:34:33.226Z,40.50
2023-01-02T15:39:42.105Z,42.22
2023-01-02T15:45:03.131Z,40.25
2023-01-02T15:50:13.123Z,40.67
2023-01-02T15:55:19.431Z,40.35
2023-01-02T16:00:39.591Z,41.47
2023-01-02T16:05:48.815Z,43.30
2023-01-02T16:11:01.237Z,41.35
2023-01-02T16:16:17.486Z,46.03
2023-01-02T16:21:21.297Z,40.28
2023-01-02T16:26:32.359Z,40.03
2023-01-02T16:31:54.442Z,39.13
2023-01-02T16:37:27.636Z,39.08
2023-01-02T16:42:37.513Z,40.88
2023-01-02T16:47:43.211Z,40.80
2023-01-02T16:52:46.680Z,39.60
2023-01-02T16:57:52.189Z,39.90
2023-01-02T17:02:55.363Z,40.95
2023-01-02T17:07:58.317Z,38.20
2023-01-02T17:13:04.121Z,39.83
2023-01-02T17:18:07.133Z,39.25
2023-01-02T17:23:10.278Z,38.15
2023-01-02T17:28:22.428Z,38.80
2023-01-02T17:33:27.427Z,39.40
2023-01-02T17:38:30.285Z,38.70
2023-01-02T17:44:02.152Z,38.70
2023-01-02T17:49:06.927Z,38.45
2023-01-02T17:54:10.858Z,39.42
2023-01-02T17:59:19.191Z,38.78
2023-01-02T18:04:34.317Z,39.00
2023-01-02T18:09:37.282Z,39.15
2023-01-02T18:14:46.491Z,39.58
2023-01-02T18:19:49.726Z,38.58
2023-01-02T18:24:52.920Z,38.22
2023-01-02T18:30:00.689Z,38.03
2023-01-02T18:35:55.058Z,38.10
2023-01-02T18:40:38.903Z,38.33
2023-01-02T18:45:43.126Z,38.60
2023-01-02T18:50:50.684Z,38.15
2023-01-02T18:55:59.824Z,38.33
2023-01-02T19:01:18.348Z,38.53
2023-01-02T19:06:24.011Z,38.20
2023-01-02T19:11:50.878Z,38.22
2023-01-02T19:17:02.612Z,38.20
2023-01-02T19:22:12.304Z,39.22
2023-01-02T19:27:24.780Z,38.15
2023-01-02T19:32:31.197Z,38.50
2023-01-02T19:37:39.204Z,38.13
2023-01-02T19:42:42.223Z,39.33
2023-01-02T19:47:49.303Z,38.05
2023-01-02T19:52:52.244Z,38.97
2023-01-02T19:57:55.183Z,38.85
2023-01-02T20:02:59.557Z,38.13
2023-01-02T20:08:02.575Z,43.67
2023-01-02T20:13:05.442Z,42.97
2023-01-02T20:18:09.939Z,39.38
2023-01-02T20:23:12.823Z,39.70
2023-01-02T20:28:43.585Z,41.50
2023-01-02T20:33:47.823Z,38.97
2023-01-02T20:38:50.715Z,39.03
2023-01-02T20:43:53.601Z,38.67
2023-01-02T20:48:58.902Z,40.40
2023-01-02T20:54:02.389Z,38.42
2023-01-02T20:59:06.685Z,38.53
2023-01-02T21:04:13.426Z,39.05
2023-01-02T21:09:17.294Z,38.33
2023-01-02T21:14:20.183Z,39.42
2023-01-02T21:19:28.281Z,38.05
2023-01-02T21:24:31.219Z,42.78
2023-01-02T21:29:35.202Z,39.03
2023-01-02T21:34:39.471Z,38.63
2023-01-02T21:39:44.899Z,39.15
2023-01-02T21:44:48.541Z,38.35
2023-01-02T21:49:53.005Z,38.85
2023-01-02T21:54:57.362Z,38.45
2023-01-02T22:00:00.276Z,39.10
2023-01-02T22:05:04.860Z,37.95
2023-01-02T22:10:09.518Z,38.60
2023-01-02T22:15:13.626Z,38.38
2023-01-02T22:20:18.578Z,38.97
2023-01-02T22:25:21.557Z,38.58
2023-01-02T22:30:33.088Z,38.47
2023-01-02T22:35:38.204Z,39.22
2023-01-02T22:40:41.201Z,38.20
2023-01-02T22:45:47.807Z,38.65
2023-01-02T22:50:54.635Z,38.08
2023-01-02T22:55:57.607Z,37.70
2023-01-02T23:01:02.898Z,43.88
2023-01-02T23:11:41.694Z,38.17
2023-01-02T23:17:03.067Z,37.90
2023-01-02T23:22:06.107Z,38.25
2023-01-02T23:27:12.038Z,37.15
2023-01-02T23:32:15.058Z,37.85
2023-01-02T23:37:17.963Z,37.40
2023-01-02T23:42:24.221Z,38.10
2023-01-02T23:47:27.087Z,37.83
2023-01-02T23:52:29.955Z,37.80
2023-01-02T23:57:34.123Z,37.60
